createdAt,value
2023-02-23T00:00:52.510Z,52.77
2023-02-23T00:05:59.915Z,52.30
2023-02-23T00:11:11.688Z,52.70
2023-02-23T00:16:22.335Z,50.70
2023-02-23T00:21:39.058Z,50.60
2023-02-23T00:26:48.080Z,49.27
2023-02-23T00:31:56.406Z,49.37
2023-02-23T00:37:02.918Z,47.90
2023-02-23T00:42:10.949Z,47.73
2023-02-23T00:47:20.643Z,48.55
2023-02-23T00:52:29.651Z,48.98
2023-02-23T00:57:37.213Z,49.13
2023-02-23T01:02:44.421Z,50.33
2023-02-23T01:07:52.233Z,53.80
2023-02-23T01:12:59.492Z,51.57
2023-02-23T01:18:08.124Z,50.97
2023-02-23T01:23:17.019Z,50.53
2023-02-23T01:28:24.824Z,52.05
2023-02-23T01:33:33.004Z,50.23
2023-02-23T01:38:40.424Z,49.30
2023-02-23T01:44:08.098Z,48.33
2023-02-23T01:49:22.462Z,49.30
2023-02-23T01:54:33.763Z,47.67
2023-02-23T01:59:46.973Z,49.10
2023-02-23T02:04:56.719Z,48.20
2023-02-23T02:10:12.272Z,48.10
2023-02-23T02:15:20.203Z,46.48
2023-02-23T02:20:55.525Z,45.37
2023-02-23T02:26:44.266Z,46.17
2023-02-23T02:32:14.911Z,46.20
2023-02-23T02:37:55.341Z,46.60
2023-02-23T02:43:25.574Z,47.40
2023-02-23T02:48:43.810Z,49.30
2023-02-23T02:54:10.677Z,48.77
2023-02-23T03:05:03.140Z,45.30
2023-02-23T03:10:41.128Z,46.10
2023-02-23T03:21:41.681Z,46.68
2023-02-23T03:27:14.536Z,44.63
2023-02-23T03:32:49.797Z,44.95
2023-02-23T03:38:36.514Z,47.07
2023-02-23T03:44:15.050Z,47.43
2023-02-23T03:49:44.251Z,47.58
2023-02-23T03:55:16.570Z,48.07
2023-02-23T04:00:46.694Z,47.90
2023-02-23T04:06:15.377Z,47.33
2023-02-23T04:12:10.836Z,46.20
2023-02-23T04:17:19.866Z,44.23
2023-02-23T04:22:28.251Z,44.65
2023-02-23T04:27:35.013Z,44.17
2023-02-23T04:32:42.811Z,43.43
2023-02-23T04:37:50.317Z,43.20
2023-02-23T04:42:57.720Z,43.37
2023-02-23T04:48:04.846Z,43.70
2023-02-23T04:53:12.267Z,44.07
2023-02-23T04:58:23.153Z,44.23
2023-02-23T05:03:30.848Z,43.40
2023-02-23T05:13:44.122Z,47.50
2023-02-23T05:18:50.687Z,48.63
2023-02-23T05:23:58.617Z,47.93
2023-02-23T05:29:09.312Z,46.77
2023-02-23T05:34:17.154Z,46.07
2023-02-23T05:39:24.738Z,45.73
2023-02-23T05:44:31.750Z,47.58
2023-02-23T05:49:39.156Z,44.83
2023-02-23T05:54:47.076Z,45.10
2023-02-23T05:59:55.585Z,44.23
2023-02-23T06:05:04.760Z,43.58
2023-02-23T06:10:13.560Z,43.17
2023-02-23T06:15:21.715Z,46.50
2023-02-23T06:20:32.504Z,47.43
2023-02-23T06:25:41.225Z,57.27
2023-02-23T06:30:49.049Z,56.37
2023-02-23T06:35:56.474Z,53.70
2023-02-23T06:41:12.451Z,49.85
2023-02-23T06:46:21.400Z,49.37
2023-02-23T06:51:29.278Z,49.47
2023-02-23T06:56:35.746Z,49.43
2023-02-23T07:01:47.047Z,49.43
2023-02-23T07:06:54.522Z,51.33
2023-02-23T07:12:04.707Z,48.80
2023-02-23T07:17:12.702Z,48.27
2023-02-23T07:22:20.382Z,49.18
2023-02-23T07:27:29.015Z,51.50
2023-02-23T07:32:36.118Z,50.03
2023-02-23T07:37:42.751Z,48.37
2023-02-23T07:42:50.595Z,48.73
2023-02-23T07:47:58.137Z,50.53
2023-02-23T07:53:05.882Z,53.43
2023-02-23T07:58:14.695Z,51.66
2023-02-23T08:03:22.123Z,49.93
2023-02-23T08:08:30.286Z,50.45
2023-02-23T08:13:38.617Z,50.57
2023-02-23T08:18:45.893Z,50.53
2023-02-23T08:23:53.291Z,50.30
2023-02-23T08:29:00.438Z,65.13
2023-02-23T08:34:07.945Z,53.43
2023-02-23T08:39:15.512Z,53.10
2023-02-23T08:44:22.407Z,58.08
2023-02-23T08:49:29.109Z,54.87
2023-02-23T08:54:37.029Z,61.97
2023-02-23T08:59:44.581Z,74.33
2023-02-23T09:10:00.593Z,57.53
2023-02-23T09:15:08.576Z,73.10
2023-02-23T09:20:17.160Z,74.10
2023-02-23T09:25:25.447Z,70.55
2023-02-23T09:30:32.851Z,63.93
2023-02-23T09:35:40.715Z,64.40
2023-02-23T09:40:57.331Z,64.93
2023-02-23T09:46:17.335Z,62.27
2023-02-23T09:51:26.814Z,62.03
2023-02-23T09:56:44.433Z,57.83
2023-02-23T10:02:16.714Z,58.20
2023-02-23T10:07:56.253Z,54.73
2023-02-23T10:13:29.042Z,55.13
2023-02-23T10:19:04.909Z,54.46
2023-02-23T10:24:27.466Z,53.67
2023-02-23T10:29:41.742Z,53.27
2023-02-23T10:34:53.797Z,53.90
2023-02-23T10:40:00.790Z,55.30
2023-02-23T10:45:17.551Z,58.10
2023-02-23T10:50:29.324Z,54.93
2023-02-23T10:55:36.423Z,55.37
2023-02-23T11:00:49.854Z,52.83
2023-02-23T11:05:58.012Z,53.37
2023-02-23T11:11:22.051Z,56.97
2023-02-23T11:16:32.451Z,52.43
2023-02-23T11:21:43.210Z,53.00
2023-02-23T11:26:53.317Z,53.50
2023-02-23T11:32:01.917Z,53.87
2023-02-23T11:37:21.561Z,52.93
2023-02-23T11:42:34.720Z,52.27
2023-02-23T11:47:46.977Z,50.93
2023-02-23T11:53:01.068Z,51.23
2023-02-23T11:58:43.098Z,51.20
2023-02-23T12:04:00.248Z,51.43
2023-02-23T12:15:04.327Z,50.28
2023-02-23T12:20:21.675Z,50.57
2023-02-23T12:25:53.673Z,50.50
2023-02-23T12:31:25.479Z,51.00
2023-02-23T12:36:39.049Z,49.90
2023-02-23T12:42:18.979Z,50.67
2023-02-23T12:48:06.152Z,51.47
2023-02-23T12:58:56.329Z,50.73
2023-02-23T13:04:45.052Z,51.07
2023-02-23T13:10:08.006Z,50.70
2023-02-23T13:15:55.146Z,50.80
2023-02-23T13:26:30.424Z,50.48
2023-02-23T13:31:41.765Z,50.40
2023-02-23T13:36:50.594Z,50.20
2023-02-23T13:42:26.538Z,51.03
2023-02-23T13:47:49.535Z,50.80
2023-02-23T13:52:58.923Z,51.20
2023-02-23T13:58:18.910Z,51.07
2023-02-23T14:03:28.461Z,50.10
2023-02-23T14:08:42.228Z,50.73
2023-02-23T14:14:02.257Z,51.30
2023-02-23T14:19:40.068Z,50.70
2023-02-23T14:24:46.780Z,51.13
2023-02-23T14:30:17.571Z,50.73
2023-02-23T14:35:43.034Z,51.03
2023-02-23T14:40:52.093Z,50.70
2023-02-23T14:45:58.784Z,50.37
2023-02-23T14:51:24.621Z,50.83
2023-02-23T14:56:43.710Z,51.27
2023-02-23T15:01:42.139Z,51.30
2023-02-23T15:06:49.929Z,51.77
2023-02-23T15:11:59.504Z,49.97
2023-02-23T15:17:07.929Z,52.23
2023-02-23T15:22:27.999Z,53.23
2023-02-23T15:27:44.859Z,51.27
2023-02-23T15:33:06.901Z,50.77
2023-02-23T15:38:42.420Z,49.80
2023-02-23T15:43:35.433Z,50.35
2023-02-23T15:48:46.203Z,50.70
2023-02-23T15:53:54.409Z,51.30
2023-02-23T15:59:13.785Z,51.57
2023-02-23T16:04:21.793Z,51.77
2023-02-23T16:09:32.159Z,50.80
2023-02-23T16:14:50.123Z,50.35
2023-02-23T16:20:05.465Z,50.27
2023-02-23T16:25:18.831Z,50.47
2023-02-23T16:30:49.410Z,51.20
2023-02-23T16:36:15.785Z,50.70
2023-02-23T16:41:25.239Z,51.63
2023-02-23T16:47:07.074Z,50.73
2023-02-23T16:52:19.258Z,50.65
2023-02-23T16:57:31.712Z,51.00
2023-02-23T17:02:38.422Z,51.53
2023-02-23T17:07:45.426Z,52.80
2023-02-23T17:12:54.606Z,53.23
2023-02-23T17:18:01.681Z,53.17
2023-02-23T17:23:09.525Z,53.70
2023-02-23T17:28:17.280Z,53.63
2023-02-23T17:33:24.512Z,52.48
2023-02-23T17:38:35.708Z,51.53
2023-02-23T17:43:43.580Z,52.33
2023-02-23T17:48:50.540Z,52.73
2023-02-23T17:53:58.550Z,57.10
2023-02-23T17:59:05.385Z,59.27
2023-02-23T18:04:12.411Z,62.03
2023-02-23T18:09:19.389Z,56.34
2023-02-23T18:14:27.369Z,60.58
2023-02-23T18:19:35.439Z,70.07
2023-02-23T18:24:42.560Z,55.33
2023-02-23T18:29:50.105Z,57.50
2023-02-23T18:34:57.908Z,53.73
2023-02-23T18:40:06.000Z,52.80
2023-02-23T18:45:15.014Z,52.97
2023-02-23T18:50:23.016Z,52.50
2023-02-23T18:55:30.592Z,54.23
2023-02-23T19:00:40.286Z,52.80
2023-02-23T19:05:49.483Z,51.83
2023-02-23T19:10:58.861Z,54.13
2023-02-23T19:16:10.704Z,56.23
2023-02-23T19:21:23.086Z,56.72
2023-02-23T19:26:31.387Z,59.87
2023-02-23T19:31:39.031Z,57.98
2023-02-23T19:36:46.733Z,56.57
2023-02-23T19:41:54.074Z,57.27
2023-02-23T19:47:01.384Z,58.93
2023-02-23T19:52:10.063Z,59.33
2023-02-23T19:57:20.919Z,65.73
2023-02-23T20:02:27.988Z,62.20
2023-02-23T20:07:35.956Z,69.57
2023-02-23T20:12:43.928Z,61.13
2023-02-23T20:17:52.150Z,63.70
2023-02-23T20:28:07.636Z,65.22
2023-02-23T20:33:16.293Z,65.53
2023-02-23T20:38:25.355Z,63.77
2023-02-23T20:43:33.518Z,63.25
2023-02-23T20:48:40.377Z,61.63
2023-02-23T20:53:49.292Z,61.20
2023-02-23T20:58:57.663Z,63.03
2023-02-23T21:04:06.189Z,67.03
2023-02-23T21:09:15.390Z,69.70
2023-02-23T21:14:22.181Z,69.90
2023-02-23T21:19:29.114Z,74.80
2023-02-23T21:24:36.071Z,57.97
2023-02-23T21:29:44.407Z,56.13
2023-02-23T21:34:51.255Z,56.10
2023-02-23T21:39:59.063Z,57.20
2023-02-23T21:45:09.084Z,56.43
2023-02-23T21:50:19.248Z,57.90
2023-02-23T21:55:27.040Z,56.05
2023-02-23T22:00:37.740Z,56.90
2023-02-23T22:05:45.446Z,65.97
2023-02-23T22:10:52.224Z,60.90
2023-02-23T22:16:02.152Z,65.60
2023-02-23T22:21:11.081Z,80.10
2023-02-23T22:26:19.628Z,85.33
2023-02-23T22:31:27.520Z,83.37
2023-02-23T22:36:35.581Z,89.40
2023-02-23T22:41:45.665Z,78.57
2023-02-23T22:46:53.400Z,66.03
2023-02-23T22:52:00.175Z,63.63
2023-02-23T22:57:07.475Z,63.83
2023-02-23T23:02:14.852Z,63.67
2023-02-23T23:07:23.855Z,63.10
2023-02-23T23:12:32.240Z,65.03
2023-02-23T23:17:39.788Z,70.97
2023-02-23T23:22:46.379Z,71.07
2023-02-23T23:27:53.390Z,61.25
2023-02-23T23:38:09.125Z,63.83
2023-02-23T23:43:16.296Z,62.07
2023-02-23T23:48:22.866Z,64.62
2023-02-23T23:53:30.820Z,72.72
2023-02-23T23:58:38.847Z,69.80
